Time;durP1;ratioP1;P1;durP2;ratioP2;P2;SDS_P1;SDS_P2;PMS_P1;PMS_P2;Temp;Humidity;BMP_temperature;BMP_pressure;BME280_temperature;BME280_humidity;BME280_pressure;Samples;Min_cycle;Max_cycle;Signal;HPM_P1;HPM_P2
2023/09/04 00:00:37;;;;;;;;;;;;;;;16.61;70.56;101000.13;5013524;28;2365;-74
2023/09/04 00:03:29;;;;;;;;;;;;;;;16.61;70.46;101000.13;5021335;28;2199;-78
2023/09/04 00:06:21;;;;;;;;;;;;;;;16.60;70.48;100999.31;5008380;28;2461;-77
2023/09/04 00:09:15;;;;;;;;;;;;;;;16.59;70.46;101003.09;5013622;28;2337;-76
2023/09/04 00:12:07;;;;;;;;;;;;;;;16.60;70.48;100998.47;5010809;28;2355;-77
2023/09/04 00:14:59;;;;;;;;;;;;;;;16.58;70.33;100996.00;5030555;28;1903;-77
2023/09/04 00:17:51;;;;;;;;;;;;;;;16.58;70.42;100993.28;4998395;28;2206;-77
2023/09/04 00:20:42;;;;;;;;;;;;;;;16.58;70.40;100993.28;5016332;28;2325;-76
2023/09/04 00:23:35;;;;;;;;;;;;;;;16.58;70.41;100987.84;5025809;28;1828;-76
2023/09/04 00:26:26;;;;;;;;;;;;;;;16.57;70.45;100984.31;5007328;28;1934;-75
2023/09/04 00:29:18;;;;;;;;;;;;;;;16.57;70.50;100978.03;5014959;28;1678;-76
2023/09/04 00:32:10;;;;;;;;;;;;;;;16.56;70.43;100973.69;4989280;28;1492;-77
2023/09/04 00:35:02;;;;;;;;;;;;;;;16.56;70.29;100977.22;5002514;28;1959;-77
2023/09/04 00:37:54;;;;;;;;;;;;;;;16.56;70.40;100988.09;4995717;28;2193;-78
2023/09/04 00:40:45;;;;;;;;;;;;;;;16.56;70.35;100993.53;5003266;28;1564;-76
2023/09/04 00:43:38;;;;;;;;;;;;;;;16.55;70.33;100983.72;4997932;28;1365;-77
2023/09/04 00:46:30;;;;;;;;;;;;;;;16.56;70.41;100984.56;5002373;28;2299;-76
2023/09/04 00:49:22;;;;;;;;;;;;;;;16.55;70.41;100982.91;4997604;28;1548;-77
2023/09/04 00:52:14;;;;;;;;;;;;;;;16.54;70.33;100981.25;4993968;28;1508;-76
2023/09/04 00:55:06;;;;;;;;;;;;;;;16.55;70.29;100985.63;5004987;28;1911;-76
2023/09/04 00:57:57;;;;;;;;;;;;;;;16.54;70.42;100989.41;4988024;28;2321;-77
2023/09/04 01:00:50;;;;;;;;;;;;;;;16.53;70.32;100991.31;5009139;28;2400;-78
2023/09/04 01:03:42;;;;;;;;;;;;;;;16.53;70.37;101007.63;4995588;28;2254;-76
2023/09/04 01:06:33;;;;;;;;;;;;;;;16.52;70.33;101003.25;4989192;28;2328;-78
2023/09/04 01:09:26;;;;;;;;;;;;;;;16.52;70.36;100999.72;4989861;28;2263;-77
2023/09/04 01:12:17;;;;;;;;;;;;;;;16.51;70.41;101003.50;4990855;28;2320;-77
2023/09/04 01:15:10;;;;;;;;;;;;;;;16.51;70.25;101001.59;4995472;28;2899;-77
2023/09/04 01:18:02;;;;;;;;;;;;;;;16.50;70.24;101002.69;5014538;28;2152;-77
2023/09/04 01:20:54;;;;;;;;;;;;;;;16.50;70.31;101010.00;4988825;28;2611;-77
2023/09/04 01:23:46;;;;;;;;;;;;;;;16.50;70.23;101010.00;5004603;28;1676;-77
2023/09/04 01:26:38;;;;;;;;;;;;;;;16.49;70.28;101020.06;4990208;28;2286;-77
2023/09/04 01:29:30;;;;;;;;;;;;;;;16.49;70.31;101025.50;4995287;28;2250;-75
2023/09/04 01:32:22;;;;;;;;;;;;;;;16.49;70.21;101025.50;5009067;28;2456;-78
2023/09/04 01:35:14;;;;;;;;;;;;;;;16.48;70.33;101032.00;5017194;28;2087;-76
2023/09/04 01:38:06;;;;;;;;;;;;;;;16.49;70.26;101032.84;5002324;28;2325;-76
2023/09/04 01:40:58;;;;;;;;;;;;;;;16.48;70.33;101036.63;5013021;28;2306;-76
2023/09/04 01:43:50;;;;;;;;;;;;;;;16.47;70.15;101032.25;5000255;28;2301;-75
2023/09/04 01:46:42;;;;;;;;;;;;;;;16.47;70.19;101027.66;5015652;28;2317;-78
2023/09/04 01:49:34;;;;;;;;;;;;;;;16.47;70.27;101034.97;5010436;28;1740;-77
2023/09/04 01:52:26;;;;;;;;;;;;;;;16.44;70.23;101020.00;5038017;28;2250;-75
2023/09/04 01:55:18;;;;;;;;;;;;;;;16.45;70.27;101026.25;5028185;28;2460;-76
2023/09/04 01:58:10;;;;;;;;;;;;;;;16.45;70.22;101028.97;5025943;28;2321;-76
2023/09/04 02:01:02;;;;;;;;;;;;;;;16.45;70.15;101029.78;5039624;28;1731;-75
2023/09/04 02:03:54;;;;;;;;;;;;;;;16.43;70.18;101023.78;5024392;28;2178;-76
2023/09/04 02:06:45;;;;;;;;;;;;;;;16.45;70.24;101031.69;5041894;28;1687;-75
2023/09/04 02:09:37;;;;;;;;;;;;;;;16.45;70.14;101031.69;5056657;28;1729;-77
2023/09/04 02:12:29;;;;;;;;;;;;;;;16.43;70.27;101034.63;5023516;28;2209;-77
2023/09/04 02:15:21;;;;;;;;;;;;;;;16.45;70.18;101027.06;5015612;28;1881;-75
2023/09/04 02:18:13;;;;;;;;;;;;;;;16.44;70.21;101035.47;5029018;28;1698;-77
2023/09/04 02:21:04;;;;;;;;;;;;;;;16.43;70.13;101031.09;5030303;28;1754;-75
2023/09/04 02:23:56;;;;;;;;;;;;;;;16.42;70.12;101021.31;5098651;22;3809;-77
2023/09/04 02:26:47;;;;;;;;;;;;;;;16.41;70.09;101023.19;5081594;28;1773;-78
2023/09/04 02:29:40;;;;;;;;;;;;;;;16.41;70.04;101022.38;5087917;28;2386;-78
2023/09/04 02:32:32;;;;;;;;;;;;;;;16.42;70.16;101024.84;5096079;28;2310;-76
2023/09/04 02:35:24;;;;;;;;;;;;;;;16.40;70.13;101024.25;5096554;28;2236;-76
2023/09/04 02:38:17;;;;;;;;;;;;;;;16.41;70.12;101025.91;5092653;28;2264;-77
2023/09/04 02:41:09;;;;;;;;;;;;;;;16.41;70.12;101027.81;5095044;28;1510;-74
2023/09/04 02:44:01;;;;;;;;;;;;;;;16.39;70.14;101046.28;5095003;28;2447;-77
2023/09/04 02:46:53;;;;;;;;;;;;;;;16.39;70.16;101040.84;5092355;28;1773;-76
2023/09/04 02:49:45;;;;;;;;;;;;;;;16.38;70.13;101041.88;5094988;28;2373;-77
2023/09/04 02:52:37;;;;;;;;;;;;;;;16.38;69.99;101058.19;5091405;28;2348;-78
2023/09/04 02:55:29;;;;;;;;;;;;;;;16.37;70.04;101060.09;5095263;28;2746;-77
2023/09/04 02:58:21;;;;;;;;;;;;;;;16.38;70.05;101058.19;5097048;28;2458;-77
2023/09/04 03:01:13;;;;;;;;;;;;;;;16.37;70.07;101064.72;5095370;28;2266;-76
2023/09/04 03:04:05;;;;;;;;;;;;;;;16.37;70.03;101064.72;5094300;28;1376;-75
2023/09/04 03:06:57;;;;;;;;;;;;;;;16.36;70.06;101061.19;5094514;28;1517;-76
2023/09/04 03:09:48;;;;;;;;;;;;;;;16.35;70.09;101049.47;5093785;28;1210;-76
2023/09/04 03:12:41;;;;;;;;;;;;;;;16.35;70.00;101048.63;5093118;28;2257;-76
2023/09/04 03:15:33;;;;;;;;;;;;;;;16.35;70.10;101054.91;5091554;28;2308;-77
2023/09/04 03:18:25;;;;;;;;;;;;;;;16.33;69.99;101065.19;5094667;28;2732;-76
2023/09/04 03:21:17;;;;;;;;;;;;;;;16.33;70.09;101062.50;5093837;28;2302;-76
2023/09/04 03:24:09;;;;;;;;;;;;;;;16.32;69.88;101063.56;5093766;28;1967;-77
2023/09/04 03:27:01;;;;;;;;;;;;;;;16.32;69.99;101063.56;5092108;28;1569;-79
2023/09/04 03:29:53;;;;;;;;;;;;;;;16.32;69.91;101058.13;5093172;28;2284;-75
2023/09/04 03:32:45;;;;;;;;;;;;;;;16.31;70.02;101067.34;5094144;28;2443;-76
2023/09/04 03:35:37;;;;;;;;;;;;;;;16.32;70.02;101066.28;5096718;28;2434;-76
2023/09/04 03:38:29;;;;;;;;;;;;;;;16.34;69.97;101074.19;5093950;28;2386;-77
2023/09/04 03:41:21;;;;;;;;;;;;;;;16.31;70.02;101075.50;5093516;28;1874;-77
2023/09/04 03:44:14;;;;;;;;;;;;;;;16.31;69.91;101075.50;5092462;28;2634;-77
2023/09/04 03:47:06;;;;;;;;;;;;;;;16.32;69.96;101082.59;5087162;28;2369;-75
2023/09/04 03:49:58;;;;;;;;;;;;;;;16.31;69.92;101090.97;5096860;28;2484;-76
2023/09/04 03:52:50;;;;;;;;;;;;;;;16.29;69.88;101088.50;5092920;28;2342;-78
2023/09/04 03:55:42;;;;;;;;;;;;;;;16.29;69.85;101085.78;5089154;28;2648;-78
2023/09/04 03:58:34;;;;;;;;;;;;;;;16.30;69.91;101078.47;5089548;28;2410;-77
2023/09/04 04:01:26;;;;;;;;;;;;;;;16.28;69.95;101072.44;5088891;28;2363;-77
2023/09/04 04:04:18;;;;;;;;;;;;;;;16.27;69.92;101074.34;5089712;28;2466;-76
2023/09/04 04:07:10;;;;;;;;;;;;;;;16.26;69.84;101066.41;5094736;28;2348;-76
2023/09/04 04:10:02;;;;;;;;;;;;;;;16.26;69.83;101074.56;5092247;28;2222;-76
2023/09/04 04:12:54;;;;;;;;;;;;;;;16.27;69.85;101087.09;5093642;28;2776;-78
2023/09/04 04:15:46;;;;;;;;;;;;;;;16.27;69.86;101098.81;5087718;28;2391;-76
2023/09/04 04:18:38;;;;;;;;;;;;;;;16.28;69.81;101097.72;5088873;28;2337;-75
2023/09/04 04:21:30;;;;;;;;;;;;;;;16.27;69.85;101100.69;5087695;28;1763;-76
2023/09/04 04:24:22;;;;;;;;;;;;;;;16.26;69.87;101099.84;5085223;28;1817;-76
2023/09/04 04:27:15;;;;;;;;;;;;;;;16.26;69.72;101097.13;5086767;28;2139;-78
2023/09/04 04:30:07;;;;;;;;;;;;;;;16.25;69.91;101098.22;5087378;28;1726;-77
2023/09/04 04:33:01;;;;;;;;;;;;;;;16.25;69.75;101090.06;5085099;28;1758;-78
2023/09/04 04:35:54;;;;;;;;;;;;;;;16.26;69.71;101091.69;5087552;28;1795;-75
2023/09/04 04:38:46;;;;;;;;;;;;;;;16.27;69.64;101087.09;5084822;28;2004;-78
2023/09/04 04:41:38;;;;;;;;;;;;;;;16.23;69.73;101065.00;5086217;28;1747;-76
2023/09/04 04:44:30;;;;;;;;;;;;;;;16.22;69.75;101055.22;5087259;28;1843;-75
2023/09/04 04:47:22;;;;;;;;;;;;;;;16.23;69.71;101069.63;5088228;28;2154;-75
2023/09/04 04:50:14;;;;;;;;;;;;;;;16.24;69.66;101069.41;5088163;28;1671;-78
2023/09/04 04:53:06;;;;;;;;;;;;;;;16.25;69.50;101067.50;5087879;28;1910;-76
2023/09/04 04:55:58;;;;;;;;;;;;;;;16.24;69.60;101076.72;5087896;28;1677;-76
2023/09/04 04:58:50;;;;;;;;;;;;;;;16.23;69.62;101078.59;5089486;28;1738;-74
2023/09/04 05:01:42;;;;;;;;;;;;;;;16.22;69.64;101079.69;5087572;28;2311;-74
2023/09/04 05:04:34;;;;;;;;;;;;;;;16.22;69.72;101095.16;5087194;28;1695;-75
2023/09/04 05:07:27;;;;;;;;;;;;;;;16.23;69.69;101096.81;5089922;28;1756;-76
2023/09/04 05:10:17;;;;;;;;;;;;;;;16.22;69.63;101098.69;5084619;28;1697;-78
2023/09/04 05:13:09;;;;;;;;;;;;;;;16.21;69.58;101102.50;5086615;28;2348;-76
2023/09/04 05:16:03;;;;;;;;;;;;;;;16.21;69.63;101116.09;5084832;28;1771;-77
2023/09/04 05:18:55;;;;;;;;;;;;;;;16.19;69.57;101085.59;5088267;28;2220;-77
2023/09/04 05:21:47;;;;;;;;;;;;;;;16.21;69.61;101098.97;5087914;28;2955;-76
2023/09/04 05:24:39;;;;;;;;;;;;;;;16.20;69.64;101073.66;5085102;28;2386;-76
2023/09/04 05:27:31;;;;;;;;;;;;;;;16.20;69.56;101089.97;5080754;28;2863;-75
2023/09/04 05:30:23;;;;;;;;;;;;;;;16.20;69.55;101100.00;5084790;28;1601;-76
2023/09/04 05:33:15;;;;;;;;;;;;;;;16.19;69.67;101112.78;5082611;28;2461;-77
2023/09/04 05:36:08;;;;;;;;;;;;;;;16.17;69.72;101111.38;5089170;28;1659;-78
2023/09/04 05:39:00;;;;;;;;;;;;;;;16.15;69.69;101133.38;5088305;28;1719;-75
2023/09/04 05:41:52;;;;;;;;;;;;;;;16.16;69.65;101126.84;5086267;28;1703;-77
2023/09/04 05:44:44;;;;;;;;;;;;;;;16.15;69.63;101133.38;5086337;28;1768;-75
2023/09/04 05:47:36;;;;;;;;;;;;;;;16.16;69.60;101128.75;5086535;28;2023;-76
2023/09/04 05:50:28;;;;;;;;;;;;;;;16.16;69.66;101134.19;5086055;28;1676;-76
2023/09/04 05:53:20;;;;;;;;;;;;;;;16.15;69.65;101138.81;5079986;28;1975;-76
2023/09/04 05:56:12;;;;;;;;;;;;;;;16.13;69.60;101141.75;5091410;28;1708;-76
2023/09/04 05:59:05;;;;;;;;;;;;;;;16.13;69.72;101152.59;5083923;28;1569;-76
2023/09/04 06:01:57;;;;;;;;;;;;;;;16.13;69.63;101149.91;5090290;28;2296;-78
2023/09/04 06:04:49;;;;;;;;;;;;;;;16.11;69.75;101143.88;5089625;28;2269;-77
2023/09/04 06:07:41;;;;;;;;;;;;;;;16.11;69.76;101141.16;5090225;28;1030;-77
2023/09/04 06:10:33;;;;;;;;;;;;;;;16.12;69.62;101139.28;5090776;28;2562;-76
2023/09/04 06:13:25;;;;;;;;;;;;;;;16.11;69.64;101149.31;5085805;28;1956;-76
2023/09/04 06:16:17;;;;;;;;;;;;;;;16.10;69.71;101155.81;5081974;28;3422;-76
2023/09/04 06:19:09;;;;;;;;;;;;;;;16.11;69.56;101153.91;5082051;28;3173;-76
2023/09/04 06:22:01;;;;;;;;;;;;;;;16.10;69.59;101141.41;5083289;28;2507;-77
2023/09/04 06:24:53;;;;;;;;;;;;;;;16.08;69.69;101151.69;5085429;28;2441;-76
2023/09/04 06:27:45;;;;;;;;;;;;;;;16.07;69.75;101144.63;5084366;28;1790;-78
2023/09/04 06:30:37;;;;;;;;;;;;;;;16.08;69.75;101151.69;5085462;28;1712;-77
2023/09/04 06:33:33;;;;;;;;;;;;;;;16.08;69.67;101149.78;5082709;28;2941;-76
2023/09/04 06:36:25;;;;;;;;;;;;;;;16.08;69.70;101154.41;5087845;28;2201;-76
2023/09/04 06:39:17;;;;;;;;;;;;;;;16.06;69.56;101165.53;5085915;28;1616;-76
2023/09/04 06:42:09;;;;;;;;;;;;;;;16.07;69.58;101163.63;5085300;28;1779;-76
2023/09/04 06:45:01;;;;;;;;;;;;;;;16.06;69.66;101183.69;5083225;28;2404;-76
2023/09/04 06:47:53;;;;;;;;;;;;;;;16.04;69.71;101186.66;5082939;28;2405;-77
2023/09/04 06:50:44;;;;;;;;;;;;;;;16.05;69.66;101184.78;5080787;28;2369;-75
2023/09/04 06:53:35;;;;;;;;;;;;;;;16.03;69.67;101184.19;5078906;28;3438;-78
2023/09/04 06:56:27;;;;;;;;;;;;;;;16.04;69.69;101188.56;5081538;28;2676;-76
2023/09/04 06:59:19;;;;;;;;;;;;;;;16.03;69.63;101189.59;5082023;28;3187;-77
2023/09/04 07:02:11;;;;;;;;;;;;;;;16.04;69.68;101194.00;5084350;28;2504;-77
2023/09/04 07:05:03;;;;;;;;;;;;;;;16.03;69.63;101184.19;5082776;28;2744;-76
2023/09/04 07:07:55;;;;;;;;;;;;;;;16.03;69.73;101189.59;5084763;28;2588;-75
2023/09/04 07:10:47;;;;;;;;;;;;;;;16.03;69.75;101185.03;5090981;28;1688;-76
2023/09/04 07:13:39;;;;;;;;;;;;;;;16.03;69.69;101185.03;5087654;28;1644;-76
2023/09/04 07:16:37;;;;;;;;;;;;;;;16.03;69.72;101189.59;5089276;28;1680;-76
2023/09/04 07:19:29;;;;;;;;;;;;;;;16.03;69.59;101189.59;5087793;28;1759;-76
2023/09/04 07:22:20;;;;;;;;;;;;;;;16.02;69.75;101182.53;5088026;28;1676;-77
2023/09/04 07:25:12;;;;;;;;;;;;;;;16.02;69.69;101190.69;5088316;28;1734;-77
2023/09/04 07:28:04;;;;;;;;;;;;;;;16.02;69.64;101194.22;5090398;28;1824;-76
2023/09/04 07:30:56;;;;;;;;;;;;;;;16.02;69.67;101188.78;5089439;28;1857;-77
2023/09/04 07:33:48;;;;;;;;;;;;;;;16.03;69.62;101197.75;5085747;28;1699;-77
2023/09/04 07:36:40;;;;;;;;;;;;;;;16.02;69.73;101202.38;5087183;28;1946;-78
2023/09/04 07:39:32;;;;;;;;;;;;;;;16.03;69.65;101189.59;5088853;28;1751;-76
2023/09/04 07:42:24;;;;;;;;;;;;;;;16.02;69.66;101177.94;5088282;28;1652;-75
2023/09/04 07:45:16;;;;;;;;;;;;;;;16.02;69.69;101167.06;5086061;28;1728;-75
2023/09/04 07:48:08;;;;;;;;;;;;;;;16.02;69.70;101175.22;5088029;28;1695;-74
2023/09/04 07:51:00;;;;;;;;;;;;;;;16.03;69.69;101168.72;5087637;28;1743;-75
2023/09/04 07:53:52;;;;;;;;;;;;;;;16.02;69.68;101168.94;5086617;28;1754;-73
2023/09/04 07:56:44;;;;;;;;;;;;;;;16.03;69.63;101170.59;5088575;28;2035;-75
2023/09/04 07:59:36;;;;;;;;;;;;;;;16.03;69.71;101170.59;5087502;28;1656;-75
2023/09/04 08:02:28;;;;;;;;;;;;;;;16.03;69.63;101165.16;5086916;28;2724;-75
2023/09/04 08:05:20;;;;;;;;;;;;;;;16.03;69.58;101166.00;5086769;28;1744;-76
2023/09/04 08:08:12;;;;;;;;;;;;;;;16.03;69.63;101170.59;5087388;28;1690;-76
2023/09/04 08:11:04;;;;;;;;;;;;;;;16.05;69.77;101171.19;5082562;28;1913;-76
2023/09/04 08:13:56;;;;;;;;;;;;;;;16.05;69.60;101176.63;5087352;28;1699;-75
2023/09/04 08:16:48;;;;;;;;;;;;;;;16.05;69.74;101157.59;5080143;28;1808;-76
2023/09/04 08:19:40;;;;;;;;;;;;;;;15.64;69.62;101092.38;5081935;28;1691;-78
2023/09/04 08:22:32;;;;;;;;;;;;;;;16.06;69.62;101159.25;5080813;28;1765;-75
2023/09/04 08:25:24;;;;;;;;;;;;;;;16.07;69.65;101169.06;5081159;28;1699;-77
2023/09/04 08:28:16;;;;;;;;;;;;;;;16.06;69.60;101165.53;5085026;28;1683;-77
2023/09/04 08:31:08;;;;;;;;;;;;;;;16.07;69.69;101163.63;5083675;28;2127;-75
2023/09/04 08:34:00;;;;;;;;;;;;;;;16.07;69.70;101160.91;5081617;28;2022;-76
2023/09/04 08:36:52;;;;;;;;;;;;;;;16.08;69.67;101170.69;5092078;28;2336;-75
2023/09/04 08:39:43;;;;;;;;;;;;;;;16.08;69.59;101168.00;5088623;28;1629;-76
2023/09/04 08:42:35;;;;;;;;;;;;;;;16.08;69.75;101159.84;5091475;28;1668;-74
2023/09/04 08:45:27;;;;;;;;;;;;;;;16.08;69.66;101168.81;5093566;28;1418;-76
2023/09/04 08:48:19;;;;;;;;;;;;;;;16.08;69.80;101176.97;5089933;28;1663;-75
2023/09/04 08:51:11;;;;;;;;;;;;;;;16.10;69.65;101179.44;5085123;28;4529;-76
2023/09/04 08:54:04;;;;;;;;;;;;;;;16.09;69.77;101175.09;5092006;28;1536;-76
2023/09/04 08:56:56;;;;;;;;;;;;;;;16.11;69.72;101181.91;5093986;28;5633;-75
2023/09/04 08:59:47;;;;;;;;;;;;;;;16.11;69.75;101168.31;5088537;28;1503;-78
2023/09/04 09:02:39;;;;;;;;;;;;;;;16.12;69.75;101167.28;5093525;28;5008;-76
2023/09/04 09:05:33;;;;;;;;;;;;;;;16.13;69.76;101165.38;5091246;28;1664;-76
2023/09/04 09:08:25;;;;;;;;;;;;;;;16.14;69.81;101164.31;5088320;28;1574;-75
2023/09/04 09:11:19;;;;;;;;;;;;;;;16.13;69.79;101158.03;5090118;28;1530;-76
2023/09/04 09:14:11;;;;;;;;;;;;;;;16.15;69.76;101156.97;5090215;28;1732;-76
2023/09/04 09:17:03;;;;;;;;;;;;;;;16.15;69.77;101143.38;5089677;28;1905;-77
2023/09/04 09:19:55;;;;;;;;;;;;;;;16.17;69.84;101152.13;5091007;28;1507;-76
2023/09/04 09:22:47;;;;;;;;;;;;;;;16.17;69.94;101143.97;5088316;28;1603;-76
2023/09/04 09:25:39;;;;;;;;;;;;;;;16.19;69.84;101147.28;5087666;28;1974;-76
2023/09/04 09:28:31;;;;;;;;;;;;;;;16.17;69.81;101139.34;5092643;28;1473;-77
2023/09/04 09:31:23;;;;;;;;;;;;;;;16.19;69.82;101134.53;5090430;28;1619;-77
2023/09/04 09:34:16;;;;;;;;;;;;;;;16.19;69.90;101139.94;5090410;28;1558;-76
2023/09/04 09:37:08;;;;;;;;;;;;;;;16.19;69.90;101129.09;5089922;28;1963;-76
2023/09/04 09:40:00;;;;;;;;;;;;;;;16.21;69.98;101126.94;5089246;28;2210;-76
2023/09/04 09:42:52;;;;;;;;;;;;;;;16.22;69.97;101128.59;5087541;28;1475;-77
2023/09/04 09:45:44;;;;;;;;;;;;;;;16.23;69.92;101129.41;5091783;28;1589;-78
2023/09/04 09:48:36;;;;;;;;;;;;;;;16.23;69.92;101132.94;5090312;28;1400;-77
2023/09/04 09:51:28;;;;;;;;;;;;;;;16.24;70.01;101129.19;5088649;28;1443;-78
2023/09/04 09:54:19;;;;;;;;;;;;;;;16.24;70.05;101131.91;5090672;28;2442;-76
2023/09/04 09:57:11;;;;;;;;;;;;;;;16.25;70.00;101128.09;5086216;28;2373;-77
2023/09/04 10:00:03;;;;;;;;;;;;;;;16.26;69.99;101137.06;5088564;28;2317;-78
2023/09/04 10:02:55;;;;;;;;;;;;;;;16.27;70.03;101125.16;5089598;28;1615;-77
2023/09/04 10:05:47;;;;;;;;;;;;;;;16.27;70.02;101128.69;5081898;28;2380;-77
2023/09/04 10:08:38;;;;;;;;;;;;;;;16.29;70.05;101128.44;5091937;28;1494;-77
2023/09/04 10:11:30;;;;;;;;;;;;;;;16.30;70.05;101127.38;5085539;28;1493;-77
2023/09/04 10:14:21;;;;;;;;;;;;;;;16.31;70.23;101126.31;5091757;28;927;-76
2023/09/04 10:17:13;;;;;;;;;;;;;;;16.32;70.02;101120.66;5090137;28;1924;-76
2023/09/04 10:20:05;;;;;;;;;;;;;;;16.32;70.13;101122.50;5090277;28;2666;-76
2023/09/04 10:22:57;;;;;;;;;;;;;;;16.34;70.16;101121.19;5081742;28;2458;-76
2023/09/04 10:25:49;;;;;;;;;;;;;;;16.34;70.38;101110.34;5080480;28;2418;-77
2023/09/04 10:28:40;;;;;;;;;;;;;;;16.35;70.22;101112.00;5085531;28;2377;-76
2023/09/04 10:31:32;;;;;;;;;;;;;;;16.38;70.17;101109.84;5087124;28;2973;-76
2023/09/04 10:34:24;;;;;;;;;;;;;;;16.38;70.17;101109.84;5092165;28;1555;-76
2023/09/04 10:37:16;;;;;;;;;;;;;;;16.37;70.25;101109.03;5092802;28;1742;-76
2023/09/04 10:40:09;;;;;;;;;;;;;;;16.39;70.36;101097.91;5094625;28;1117;-76
2023/09/04 10:43:03;;;;;;;;;;;;;;;16.41;70.16;101095.75;5094061;28;1553;-76
2023/09/04 10:45:55;;;;;;;;;;;;;;;16.41;70.33;101091.13;5088121;28;1737;-78
2023/09/04 10:48:47;;;;;;;;;;;;;;;16.43;70.36;101097.16;5095272;28;1829;-77
2023/09/04 10:51:39;;;;;;;;;;;;;;;16.45;70.34;101091.50;5092973;28;1097;-76
2023/09/04 10:54:31;;;;;;;;;;;;;;;16.45;70.36;101095.03;5095534;28;1832;-77
2023/09/04 10:57:22;;;;;;;;;;;;;;;16.47;70.35;101097.50;5089055;28;2414;-77
2023/09/04 11:00:14;;;;;;;;;;;;;;;16.48;70.40;101102.69;5082730;28;2298;-76
2023/09/04 11:03:05;;;;;;;;;;;;;;;16.50;70.43;101081.53;5089199;28;1962;-78
2023/09/04 11:05:57;;;;;;;;;;;;;;;16.50;70.55;101083.41;5084541;28;2010;-77
2023/09/04 11:08:50;;;;;;;;;;;;;;;16.51;70.58;101087.78;5085688;28;2221;-76
2023/09/04 11:11:41;;;;;;;;;;;;;;;16.52;70.52;101098.41;5080419;28;2224;-77
2023/09/04 11:14:33;;;;;;;;;;;;;;;16.53;70.52;101101.94;5083004;28;2276;-75
2023/09/04 11:17:25;;;;;;;;;;;;;;;16.54;70.46;101100.91;5079033;28;2287;-76
2023/09/04 11:20:17;;;;;;;;;;;;;;;16.56;70.52;101109.63;5077957;28;2299;-76
2023/09/04 11:23:09;;;;;;;;;;;;;;;16.56;70.70;101096.03;5080749;28;2236;-77
2023/09/04 11:26:02;;;;;;;;;;;;;;;16.58;70.66;101102.03;5080905;28;2275;-75
2023/09/04 11:28:53;;;;;;;;;;;;;;;16.60;70.64;101102.63;5079505;28;2445;-78
2023/09/04 11:31:44;;;;;;;;;;;;;;;16.61;70.72;101089.84;5084768;28;2300;-76
2023/09/04 11:34:35;;;;;;;;;;;;;;;16.62;70.62;101091.50;5080225;28;2255;-77
2023/09/04 11:37:27;;;;;;;;;;;;;;;16.63;70.75;101091.25;5081301;28;2600;-77
2023/09/04 11:40:19;;;;;;;;;;;;;;;16.65;70.88;101101.88;5079973;28;2551;-76
2023/09/04 11:43:11;;;;;;;;;;;;;;;16.65;70.74;101097.28;5079794;28;2304;-77
2023/09/04 11:46:03;;;;;;;;;;;;;;;16.67;70.86;101099.75;5081909;28;2422;-76
2023/09/04 11:48:55;;;;;;;;;;;;;;;16.68;70.88;101101.41;5078320;28;2334;-77
2023/09/04 11:51:47;;;;;;;;;;;;;;;16.68;70.89;101091.34;5077524;28;2279;-77
2023/09/04 11:54:40;;;;;;;;;;;;;;;16.70;70.90;101078.31;5082972;28;2279;-76
2023/09/04 11:57:31;;;;;;;;;;;;;;;16.72;70.93;101072.63;5077899;28;2593;-74
2023/09/04 12:00:23;;;;;;;;;;;;;;;16.73;70.92;101083.25;5078683;28;2285;-75
2023/09/04 12:03:15;;;;;;;;;;;;;;;16.75;70.97;101081.13;5089604;28;1805;-76
2023/09/04 12:06:07;;;;;;;;;;;;;;;16.76;71.12;101071.09;5089861;28;3071;-76
2023/09/04 12:08:58;;;;;;;;;;;;;;;16.77;71.02;101067.31;5082104;28;4238;-77
2023/09/04 12:11:50;;;;;;;;;;;;;;;16.79;71.08;101073.31;5080841;28;4186;-73
2023/09/04 12:14:42;;;;;;;;;;;;;;;16.80;71.09;101072.25;5097596;28;2614;-75
2023/09/04 12:17:34;;;;;;;;;;;;;;;16.81;71.13;101071.16;5090735;28;1523;-76
2023/09/04 12:20:26;;;;;;;;;;;;;;;16.82;71.23;101072.81;5095027;28;955;-75
2023/09/04 12:23:18;;;;;;;;;;;;;;;16.83;71.28;101077.19;5092479;28;2375;-76
2023/09/04 12:26:10;;;;;;;;;;;;;;;16.85;71.21;101066.88;5085061;28;2413;-77
2023/09/04 12:29:03;;;;;;;;;;;;;;;16.86;71.23;101060.38;5084486;28;2408;-75
2023/09/04 12:31:54;;;;;;;;;;;;;;;16.87;71.40;101056.56;5086609;28;2420;-75
2023/09/04 12:34:46;;;;;;;;;;;;;;;16.88;71.25;101058.22;5086034;28;1903;-78
2023/09/04 12:37:38;;;;;;;;;;;;;;;16.91;71.25;101051.44;5093663;28;1749;-75
2023/09/04 12:40:31;;;;;;;;;;;;;;;16.93;71.42;101041.16;5085212;28;1745;-78
2023/09/04 12:43:22;;;;;;;;;;;;;;;16.93;71.39;101033.81;5085612;28;1690;-78
2023/09/04 12:46:13;;;;;;;;;;;;;;;16.95;71.29;101028.94;5086799;28;1586;-75
2023/09/04 12:49:05;;;;;;;;;;;;;;;16.96;71.30;101025.16;5090513;28;1462;-77
2023/09/04 12:51:56;;;;;;;;;;;;;;;16.99;71.50;101018.38;5092910;28;1742;-76
2023/09/04 12:54:48;;;;;;;;;;;;;;;17.00;71.33;101018.16;5089714;28;1551;-75
2023/09/04 12:57:40;;;;;;;;;;;;;;;17.01;71.37;101025.22;5091897;28;1527;-78
2023/09/04 13:00:32;;;;;;;;;;;;;;;17.02;71.52;101018.69;5089147;28;1616;-76
2023/09/04 13:03:24;;;;;;;;;;;;;;;17.04;71.51;101015.75;5083184;28;2354;-77
2023/09/04 13:06:15;;;;;;;;;;;;;;;17.07;71.49;101015.22;5071793;28;2617;-76
2023/09/04 13:09:07;;;;;;;;;;;;;;;17.09;71.45;101009.53;5084023;28;2335;-78
2023/09/04 13:12:00;;;;;;;;;;;;;;;17.09;71.61;101002.22;5074984;28;2222;-75
2023/09/04 13:14:52;;;;;;;;;;;;;;;17.12;71.65;101000.84;5074823;28;2216;-76
2023/09/04 13:17:43;;;;;;;;;;;;;;;17.14;71.65;101006.88;5075690;28;2223;-76
2023/09/04 13:20:35;;;;;;;;;;;;;;;17.14;71.57;100996.81;5073776;28;2223;-77
2023/09/04 13:23:27;;;;;;;;;;;;;;;17.16;71.43;100994.66;5087800;28;2374;-77
2023/09/04 13:26:19;;;;;;;;;;;;;;;17.18;71.66;100987.09;5077008;28;2362;-75
2023/09/04 13:29:11;;;;;;;;;;;;;;;17.20;71.44;100990.34;5089876;28;1989;-76
2023/09/04 13:32:03;;;;;;;;;;;;;;;17.22;71.58;100990.13;5088602;28;1883;-77
2023/09/04 13:34:55;;;;;;;;;;;;;;;17.23;71.68;100989.84;5087877;28;1525;-76
2023/09/04 13:37:47;;;;;;;;;;;;;;;17.25;71.64;100986.88;5084232;28;1855;-76
2023/09/04 13:40:39;;;;;;;;;;;;;;;17.27;71.47;100973.03;5080293;28;2214;-76
2023/09/04 13:43:31;;;;;;;;;;;;;;;17.30;71.51;100983.41;5079976;28;2270;-77
2023/09/04 13:46:24;;;;;;;;;;;;;;;17.31;71.69;100979.59;5077031;28;2437;-77
2023/09/04 13:49:16;;;;;;;;;;;;;;;17.33;71.69;100974.75;5080821;28;2234;-75
2023/09/04 13:52:12;;;;;;;;;;;;;;;17.33;71.60;100953.78;5087364;28;1495;-76
2023/09/04 13:55:04;;;;;;;;;;;;;;;17.35;71.70;100948.88;5086523;28;1534;-77
2023/09/04 13:57:55;;;;;;;;;;;;;;;17.37;71.59;100965.78;5089828;28;1618;-77
2023/09/04 14:00:47;;;;;;;;;;;;;;;17.40;71.80;100972.63;5089547;28;1510;-77
2023/09/04 14:03:38;;;;;;;;;;;;;;;17.42;71.76;100967.75;5091144;28;1498;-76
2023/09/04 14:06:30;;;;;;;;;;;;;;;17.43;71.73;100972.94;5086589;28;2227;-78
2023/09/04 14:09:22;;;;;;;;;;;;;;;17.46;71.80;100971.59;5083166;28;2235;-77
2023/09/04 14:12:15;;;;;;;;;;;;;;;17.48;71.98;100969.47;5091656;28;2063;-75
2023/09/04 14:15:06;;;;;;;;;;;;;;;17.49;71.83;100973.81;5084740;28;1904;-76
2023/09/04 14:17:58;;;;;;;;;;;;;;;17.51;71.75;100971.66;5085559;28;2141;-76
2023/09/04 14:20:50;;;;;;;;;;;;;;;17.53;72.00;100966.81;5089326;28;1673;-76
2023/09/04 14:23:42;;;;;;;;;;;;;;;17.55;71.83;100969.25;5084905;28;1725;-77
2023/09/04 14:26:35;;;;;;;;;;;;;;;17.56;71.91;100966.28;5089588;28;1963;-77
2023/09/04 14:29:27;;;;;;;;;;;;;;;17.58;71.95;100964.09;5078349;28;1510;-75
2023/09/04 14:32:19;;;;;;;;;;;;;;;17.59;71.94;100965.78;5082978;28;1816;-78
2023/09/04 14:35:10;;;;;;;;;;;;;;;17.61;72.02;100968.22;5080438;28;4862;-75
2023/09/04 14:38:02;;;;;;;;;;;;;;;17.64;72.19;100965.00;5087998;28;1559;-75
2023/09/04 14:40:55;;;;;;;;;;;;;;;17.65;71.98;100967.47;5082617;28;4040;-76
2023/09/04 14:43:47;;;;;;;;;;;;;;;17.68;72.10;100958.78;5087738;28;1438;-78
2023/09/04 14:46:38;;;;;;;;;;;;;;;17.68;72.17;100956.06;5085468;28;1475;-74
2023/09/04 14:49:30;;;;;;;;;;;;;;;17.70;72.10;100945.72;5083684;28;1398;-75
2023/09/04 14:52:23;;;;;;;;;;;;;;;17.73;72.19;100949.00;5090396;28;4406;-76
2023/09/04 14:55:15;;;;;;;;;;;;;;;17.74;72.37;100937.88;5082540;28;1359;-76